Kivalina, AK

1:10 PM AKDT on July 28, 2016 (GMT -0800)
Kivalina | | Change Station

Elev 10 ft 67.73 °N, 164.55 °W | Updated 3 minutes ago

Light Rain
Light Rain Mist
48 °F
Feels Like 48 °F
N
18
Wind Variable Wind from WNW
Gusts 22 mph

Today
High -- | Low -- °F
--% Chance of Precip.
Yesterday
High -- | Low -- °F
Precip. -- in
Pressure 29.78 in
Visibility 1.5 miles
Clouds Scattered Clouds 700 ft
Mostly Cloudy 1100 ft
Overcast 3300 ft
Dew Point 44 °F
Humidity 86%
Rainfall 0.00 in
Snow Depth Not available.
5:02 AM 1:02 AM
Waning Crescent, 29% visible
SPECI PAVL 282107Z AUTO 29016G19KT 1 1/2SM -RA BR SCT007 BKN011 OVC033 09/07 A2978 RMK AO2 P0001 T00890067 TSNO
Pressure 29.78 in
Visibility 1.5 miles
Clouds Scattered Clouds 700 ft
Mostly Cloudy 1100 ft
Overcast 3300 ft
Dew Point 44 °F
Humidity 86%
Rainfall 0.00 in
Snow Depth Not available.
5:02 AM 1:02 AM
Waning Crescent, 29% visible
SPECI PAVL 282107Z AUTO 29016G19KT 1 1/2SM -RA BR SCT007 BKN011 OVC033 09/07 A2978 RMK AO2 P0001 T00890067 TSNO

10-Day Weather Forecast

Almanac

Astronomy

Jul. 28, 2016 Rise Set
Actual Time
Civil Twilight
Nautical Twilight
Astronomical Twilight
Moon
Length of Visible Light
Length of Day
Tomorrow will be .
, % of the Moon is Illuminated

Today's Extremes

State Highs State Lows

Community

WunderPhotos

Upload Photos

1,928,223 photos uploaded!

WunderBlog® & News

Nearby

Air Quality

  Air Quality AQ Index Pollutant
Not available.

Snow Depth

Station Depth Elevation

Earthquake Activity

City Distance Mag. Time & Date
Minimum magnitude displayed is 2.5.

Coastal Water Temperatures

Place Temperature

Stations

Nearby Weather Stations

Station Location Temp. Windchill Dew Point Humidity Wind Precip. Elev Updated Type
                   

Watches & Warnings

There are currently no watches in effect.